sensor_id;sensor_type;location;lat;lon;timestamp;temperature;humidity
11497;DHT22;5805;51.542;7.230;2023-08-06T00:01:24;18.60;99.90
11497;DHT22;5805;51.542;7.230;2023-08-06T00:03:50;18.60;99.90
11497;DHT22;5805;51.542;7.230;2023-08-06T00:06:17;18.60;99.90
11497;DHT22;5805;51.542;7.230;2023-08-06T00:08:42;18.50;99.90
11497;DHT22;5805;51.542;7.230;2023-08-06T00:11:08;18.50;99.90
11497;DHT22;5805;51.542;7.230;2023-08-06T00:13:34;18.50;99.90
11497;DHT22;5805;51.542;7.230;2023-08-06T00:16:09;18.40;99.90
11497;DHT22;5805;51.542;7.230;2023-08-06T00:18:34;18.40;99.90
11497;DHT22;5805;51.542;7.230;2023-08-06T00:21:00;18.30;99.90
11497;DHT22;5805;51.542;7.230;2023-08-06T00:23:27;18.20;99.90
11497;DHT22;5805;51.542;7.230;2023-08-06T00:25:53;18.20;99.90
11497;DHT22;5805;51.542;7.230;2023-08-06T00:28:18;18.10;99.90
11497;DHT22;5805;51.542;7.230;2023-08-06T00:30:44;18.00;99.90
11497;DHT22;5805;51.542;7.230;2023-08-06T00:33:10;18.10;99.90
11497;DHT22;5805;51.542;7.230;2023-08-06T00:35:35;18.10;99.90
11497;DHT22;5805;51.542;7.230;2023-08-06T00:38:01;18.20;99.90
11497;DHT22;5805;51.542;7.230;2023-08-06T00:40:28;18.20;99.90
11497;DHT22;5805;51.542;7.230;2023-08-06T00:42:54;18.30;99.90
11497;DHT22;5805;51.542;7.230;2023-08-06T00:45:19;18.30;99.90
11497;DHT22;5805;51.542;7.230;2023-08-06T00:47:46;18.30;99.90
11497;DHT22;5805;51.542;7.230;2023-08-06T00:50:11;18.30;99.90
11497;DHT22;5805;51.542;7.230;2023-08-06T00:52:37;18.30;99.90
11497;DHT22;5805;51.542;7.230;2023-08-06T00:55:03;18.30;99.90
11497;DHT22;5805;51.542;7.230;2023-08-06T00:57:31;18.30;99.90
11497;DHT22;5805;51.542;7.230;2023-08-06T00:59:56;18.40;99.90
11497;DHT22;5805;51.542;7.230;2023-08-06T01:02:22;18.20;99.90
11497;DHT22;5805;51.542;7.230;2023-08-06T01:04:48;18.20;99.90
11497;DHT22;5805;51.542;7.230;2023-08-06T01:07:21;18.20;99.90
11497;DHT22;5805;51.542;7.230;2023-08-06T01:10:01;18.20;99.90
11497;DHT22;5805;51.542;7.230;2023-08-06T01:12:40;18.20;99.90
11497;DHT22;5805;51.542;7.230;2023-08-06T01:15:11;18.20;99.90
11497;DHT22;5805;51.542;7.230;2023-08-06T01:17:40;18.20;99.90
11497;DHT22;5805;51.542;7.230;2023-08-06T01:20:07;18.30;99.90
11497;DHT22;5805;51.542;7.230;2023-08-06T01:22:34;18.30;99.90
11497;DHT22;5805;51.542;7.230;2023-08-06T01:25:00;18.30;99.90
11497;DHT22;5805;51.542;7.230;2023-08-06T01:27:30;18.30;99.90
11497;DHT22;5805;51.542;7.230;2023-08-06T01:30:03;18.30;99.90
11497;DHT22;5805;51.542;7.230;2023-08-06T01:32:29;18.30;99.90
11497;DHT22;5805;51.542;7.230;2023-08-06T01:34:59;18.30;99.90
11497;DHT22;5805;51.542;7.230;2023-08-06T01:37:25;18.30;99.90
11497;DHT22;5805;51.542;7.230;2023-08-06T01:39:53;18.30;99.90
11497;DHT22;5805;51.542;7.230;2023-08-06T01:42:18;18.30;99.90
11497;DHT22;5805;51.542;7.230;2023-08-06T01:44:44;18.30;99.90
11497;DHT22;5805;51.542;7.230;2023-08-06T01:47:10;18.30;99.90
11497;DHT22;5805;51.542;7.230;2023-08-06T01:49:36;18.30;99.90
11497;DHT22;5805;51.542;7.230;2023-08-06T01:52:01;18.30;99.90
11497;DHT22;5805;51.542;7.230;2023-08-06T01:54:27;18.30;99.90
11497;DHT22;5805;51.542;7.230;2023-08-06T01:56:54;18.30;99.90
11497;DHT22;5805;51.542;7.230;2023-08-06T01:59:20;18.30;99.90
11497;DHT22;5805;51.542;7.230;2023-08-06T02:01:45;18.30;99.90
11497;DHT22;5805;51.542;7.230;2023-08-06T02:04:11;18.30;99.90
11497;DHT22;5805;51.542;7.230;2023-08-06T02:06:37;18.30;99.90
11497;DHT22;5805;51.542;7.230;2023-08-06T02:09:03;18.30;99.90
11497;DHT22;5805;51.542;7.230;2023-08-06T02:11:28;18.30;99.90
11497;DHT22;5805;51.542;7.230;2023-08-06T02:13:55;18.30;99.90
11497;DHT22;5805;51.542;7.230;2023-08-06T02:16:21;18.40;99.90
11497;DHT22;5805;51.542;7.230;2023-08-06T02:18:47;18.40;99.90
11497;DHT22;5805;51.542;7.230;2023-08-06T02:21:12;18.40;99.90
11497;DHT22;5805;51.542;7.230;2023-08-06T02:23:38;18.40;99.90
11497;DHT22;5805;51.542;7.230;2023-08-06T02:26:04;18.40;99.90
11497;DHT22;5805;51.542;7.230;2023-08-06T02:28:30;18.40;99.90
11497;DHT22;5805;51.542;7.230;2023-08-06T02:30:57;18.30;99.90
11497;DHT22;5805;51.542;7.230;2023-08-06T02:33:23;18.40;99.90
11497;DHT22;5805;51.542;7.230;2023-08-06T02:35:49;18.30;99.90
11497;DHT22;5805;51.542;7.230;2023-08-06T02:38:14;18.30;99.90
11497;DHT22;5805;51.542;7.230;2023-08-06T02:40:43;18.30;99.90
11497;DHT22;5805;51.542;7.230;2023-08-06T02:43:09;18.30;99.90
11497;DHT22;5805;51.542;7.230;2023-08-06T02:45:34;18.30;99.90
11497;DHT22;5805;51.542;7.230;2023-08-06T02:48:02;18.30;99.90
11497;DHT22;5805;51.542;7.230;2023-08-06T02:50:27;18.30;99.90
11497;DHT22;5805;51.542;7.230;2023-08-06T02:52:53;18.30;99.90
11497;DHT22;5805;51.542;7.230;2023-08-06T02:55:19;18.20;99.90
11497;DHT22;5805;51.542;7.230;2023-08-06T02:57:44;18.20;99.90
11497;DHT22;5805;51.542;7.230;2023-08-06T03:00:10;18.20;99.90
11497;DHT22;5805;51.542;7.230;2023-08-06T03:02:36;18.10;99.90
11497;DHT22;5805;51.542;7.230;2023-08-06T03:05:04;18.10;99.90
11497;DHT22;5805;51.542;7.230;2023-08-06T03:07:29;18.00;99.90
11497;DHT22;5805;51.542;7.230;2023-08-06T03:09:55;18.00;99.90
11497;DHT22;5805;51.542;7.230;2023-08-06T03:12:21;18.00;99.90
11497;DHT22;5805;51.542;7.230;2023-08-06T03:14:46;17.90;99.90
11497;DHT22;5805;51.542;7.230;2023-08-06T03:17:12;17.90;99.90
11497;DHT22;5805;51.542;7.230;2023-08-06T03:19:38;17.80;99.90
11497;DHT22;5805;51.542;7.230;2023-08-06T03:22:05;17.80;99.90
11497;DHT22;5805;51.542;7.230;2023-08-06T03:24:31;17.70;99.90
11497;DHT22;5805;51.542;7.230;2023-08-06T03:26:57;17.60;99.90
11497;DHT22;5805;51.542;7.230;2023-08-06T03:29:22;17.60;99.90
11497;DHT22;5805;51.542;7.230;2023-08-06T03:31:48;17.60;99.90
11497;DHT22;5805;51.542;7.230;2023-08-06T03:34:14;17.60;99.90
11497;DHT22;5805;51.542;7.230;2023-08-06T03:36:39;17.50;99.90
11497;DHT22;5805;51.542;7.230;2023-08-06T03:39:06;17.40;99.90
11497;DHT22;5805;51.542;7.230;2023-08-06T03:41:32;17.40;99.90
11497;DHT22;5805;51.542;7.230;2023-08-06T03:43:57;17.30;99.90
11497;DHT22;5805;51.542;7.230;2023-08-06T03:46:23;17.30;99.90
11497;DHT22;5805;51.542;7.230;2023-08-06T03:48:49;17.30;99.90
11497;DHT22;5805;51.542;7.230;2023-08-06T03:51:14;17.30;99.90
11497;DHT22;5805;51.542;7.230;2023-08-06T03:53:40;17.30;99.90
11497;DHT22;5805;51.542;7.230;2023-08-06T03:56:07;17.20;99.90
11497;DHT22;5805;51.542;7.230;2023-08-06T03:58:33;17.20;99.90
11497;DHT22;5805;51.542;7.230;2023-08-06T04:00:59;17.20;99.90
11497;DHT22;5805;51.542;7.230;2023-08-06T04:03:25;17.10;99.90
11497;DHT22;5805;51.542;7.230;2023-08-06T04:05:51;17.10;99.90
11497;DHT22;5805;51.542;7.230;2023-08-06T04:08:16;17.10;99.90
11497;DHT22;5805;51.542;7.230;2023-08-06T04:10:42;17.20;99.90
11497;DHT22;5805;51.542;7.230;2023-08-06T04:13:09;17.20;99.90
11497;DHT22;5805;51.542;7.230;2023-08-06T04:15:35;17.30;99.90
11497;DHT22;5805;51.542;7.230;2023-08-06T04:18:00;17.30;99.90
11497;DHT22;5805;51.542;7.230;2023-08-06T04:20:26;17.30;99.90
11497;DHT22;5805;51.542;7.230;2023-08-06T04:22:54;17.40;99.90
11497;DHT22;5805;51.542;7.230;2023-08-06T04:25:20;17.40;99.90
11497;DHT22;5805;51.542;7.230;2023-08-06T04:27:45;17.40;99.90
11497;DHT22;5805;51.542;7.230;2023-08-06T04:30:13;17.40;99.90
11497;DHT22;5805;51.542;7.230;2023-08-06T04:32:40;17.40;99.90
11497;DHT22;5805;51.542;7.230;2023-08-06T04:35:06;17.50;99.90
11497;DHT22;5805;51.542;7.230;2023-08-06T04:37:32;17.50;99.90
11497;DHT22;5805;51.542;7.230;2023-08-06T04:39:58;17.50;99.90
11497;DHT22;5805;51.542;7.230;2023-08-06T04:42:23;17.50;99.90
11497;DHT22;5805;51.542;7.230;2023-08-06T04:44:49;17.60;99.90
11497;DHT22;5805;51.542;7.230;2023-08-06T04:47:16;17.70;99.90
11497;DHT22;5805;51.542;7.230;2023-08-06T04:49:42;17.70;99.90
11497;DHT22;5805;51.542;7.230;2023-08-06T04:52:08;17.80;99.90
11497;DHT22;5805;51.542;7.230;2023-08-06T04:54:34;17.80;99.90
11497;DHT22;5805;51.542;7.230;2023-08-06T04:56:59;17.90;99.90
11497;DHT22;5805;51.542;7.230;2023-08-06T04:59:25;17.90;99.90
11497;DHT22;5805;51.542;7.230;2023-08-06T05:01:51;17.90;99.90
11497;DHT22;5805;51.542;7.230;2023-08-06T05:04:18;17.90;99.90
11497;DHT22;5805;51.542;7.230;2023-08-06T05:06:43;18.00;99.90
11497;DHT22;5805;51.542;7.230;2023-08-06T05:09:09;18.10;99.90
11497;DHT22;5805;51.542;7.230;2023-08-06T05:11:35;18.10;99.90
11497;DHT22;5805;51.542;7.230;2023-08-06T05:14:00;18.10;99.90
11497;DHT22;5805;51.542;7.230;2023-08-06T05:16:26;18.20;99.90
11497;DHT22;5805;51.542;7.230;2023-08-06T05:18:52;18.20;99.90
11497;DHT22;5805;51.542;7.230;2023-08-06T05:21:19;18.20;99.90
11497;DHT22;5805;51.542;7.230;2023-08-06T05:23:45;18.30;99.90
11497;DHT22;5805;51.542;7.230;2023-08-06T05:26:10;18.40;99.90
11497;DHT22;5805;51.542;7.230;2023-08-06T05:28:36;18.40;99.90
11497;DHT22;5805;51.542;7.230;2023-08-06T05:31:03;18.40;99.90
11497;DHT22;5805;51.542;7.230;2023-08-06T05:33:29;18.50;99.90
11497;DHT22;5805;51.542;7.230;2023-08-06T05:35:54;18.50;99.90
11497;DHT22;5805;51.542;7.230;2023-08-06T05:38:22;18.60;99.90
11497;DHT22;5805;51.542;7.230;2023-08-06T05:40:47;18.70;99.90
11497;DHT22;5805;51.542;7.230;2023-08-06T05:43:13;18.70;99.90
11497;DHT22;5805;51.542;7.230;2023-08-06T05:45:39;18.80;99.90
11497;DHT22;5805;51.542;7.230;2023-08-06T05:48:04;18.80;99.90
11497;DHT22;5805;51.542;7.230;2023-08-06T05:50:30;18.90;99.90
11497;DHT22;5805;51.542;7.230;2023-08-06T05:52:56;19.10;99.90
11497;DHT22;5805;51.542;7.230;2023-08-06T05:55:23;19.10;99.90
11497;DHT22;5805;51.542;7.230;2023-08-06T05:57:48;19.20;99.90
11497;DHT22;5805;51.542;7.230;2023-08-06T06:00:15;19.20;99.90
11497;DHT22;5805;51.542;7.230;2023-08-06T06:02:40;19.30;99.90
11497;DHT22;5805;51.542;7.230;2023-08-06T06:05:07;19.40;99.90
11497;DHT22;5805;51.542;7.230;2023-08-06T06:07:32;19.60;99.90
11497;DHT22;5805;51.542;7.230;2023-08-06T06:09:58;19.90;99.90
11497;DHT22;5805;51.542;7.230;2023-08-06T06:12:25;20.10;99.90
11497;DHT22;5805;51.542;7.230;2023-08-06T06:14:51;20.40;99.90
11497;DHT22;5805;51.542;7.230;2023-08-06T06:17:16;20.60;99.90
11497;DHT22;5805;51.542;7.230;2023-08-06T06:19:42;20.90;99.90
11497;DHT22;5805;51.542;7.230;2023-08-06T06:22:08;21.00;99.90
11497;DHT22;5805;51.542;7.230;2023-08-06T06:24:33;20.90;99.90
11497;DHT22;5805;51.542;7.230;2023-08-06T06:27:00;20.80;99.90
11497;DHT22;5805;51.542;7.230;2023-08-06T06:29:27;20.90;99.90
11497;DHT22;5805;51.542;7.230;2023-08-06T06:31:52;21.10;99.90
11497;DHT22;5805;51.542;7.230;2023-08-06T06:34:18;21.30;99.90
11497;DHT22;5805;51.542;7.230;2023-08-06T06:36:44;21.50;99.90
11497;DHT22;5805;51.542;7.230;2023-08-06T06:39:09;21.60;99.90
11497;DHT22;5805;51.542;7.230;2023-08-06T06:41:35;21.70;99.90
11497;DHT22;5805;51.542;7.230;2023-08-06T06:44:01;21.80;99.90
11497;DHT22;5805;51.542;7.230;2023-08-06T06:46:28;22.10;99.90
11497;DHT22;5805;51.542;7.230;2023-08-06T06:48:54;22.30;99.90
11497;DHT22;5805;51.542;7.230;2023-08-06T06:51:19;22.50;99.90
11497;DHT22;5805;51.542;7.230;2023-08-06T06:53:45;22.70;99.90
11497;DHT22;5805;51.542;7.230;2023-08-06T06:56:11;22.80;99.90
11497;DHT22;5805;51.542;7.230;2023-08-06T06:58:36;22.80;99.90
11497;DHT22;5805;51.542;7.230;2023-08-06T07:01:02;22.80;99.90
11497;DHT22;5805;51.542;7.230;2023-08-06T07:03:29;22.80;99.90
11497;DHT22;5805;51.542;7.230;2023-08-06T07:05:57;22.80;99.90
11497;DHT22;5805;51.542;7.230;2023-08-06T07:08:23;22.80;99.90
11497;DHT22;5805;51.542;7.230;2023-08-06T07:10:49;22.80;99.90
11497;DHT22;5805;51.542;7.230;2023-08-06T07:13:14;22.80;99.90
11497;DHT22;5805;51.542;7.230;2023-08-06T07:15:40;22.80;99.90
11497;DHT22;5805;51.542;7.230;2023-08-06T07:18:06;23.00;99.90
11497;DHT22;5805;51.542;7.230;2023-08-06T07:20:33;23.10;99.90
11497;DHT22;5805;51.542;7.230;2023-08-06T07:22:59;23.10;99.90
11497;DHT22;5805;51.542;7.230;2023-08-06T07:25:25;23.10;99.90
11497;DHT22;5805;51.542;7.230;2023-08-06T07:27:50;23.00;99.90
11497;DHT22;5805;51.542;7.230;2023-08-06T07:30:16;23.00;99.90
11497;DHT22;5805;51.542;7.230;2023-08-06T07:32:42;23.10;99.90
11497;DHT22;5805;51.542;7.230;2023-08-06T07:35:08;23.30;99.90
11497;DHT22;5805;51.542;7.230;2023-08-06T07:37:36;23.30;99.90
11497;DHT22;5805;51.542;7.230;2023-08-06T07:40:01;23.40;99.90
11497;DHT22;5805;51.542;7.230;2023-08-06T07:42:27;23.50;99.90
11497;DHT22;5805;51.542;7.230;2023-08-06T07:44:54;23.70;99.90
11497;DHT22;5805;51.542;7.230;2023-08-06T07:47:21;24.00;99.90
11497;DHT22;5805;51.542;7.230;2023-08-06T07:49:46;24.00;99.90
11497;DHT22;5805;51.542;7.230;2023-08-06T07:52:12;23.90;99.90
11497;DHT22;5805;51.542;7.230;2023-08-06T07:54:39;23.80;99.90
11497;DHT22;5805;51.542;7.230;2023-08-06T07:57:05;23.70;99.90
11497;DHT22;5805;51.542;7.230;2023-08-06T07:59:31;23.60;99.90
11497;DHT22;5805;51.542;7.230;2023-08-06T08:01:57;23.60;99.90
11497;DHT22;5805;51.542;7.230;2023-08-06T08:04:23;23.50;99.90
11497;DHT22;5805;51.542;7.230;2023-08-06T08:06:49;23.40;99.90
11497;DHT22;5805;51.542;7.230;2023-08-06T08:09:15;23.40;99.90
11497;DHT22;5805;51.542;7.230;2023-08-06T08:11:42;23.30;99.90
11497;DHT22;5805;51.542;7.230;2023-08-06T08:14:08;23.30;99.90
11497;DHT22;5805;51.542;7.230;2023-08-06T08:16:34;23.20;99.90
11497;DHT22;5805;51.542;7.230;2023-08-06T08:18:59;23.10;99.90
11497;DHT22;5805;51.542;7.230;2023-08-06T08:21:25;23.00;99.90
11497;DHT22;5805;51.542;7.230;2023-08-06T08:23:51;22.90;99.90
11497;DHT22;5805;51.542;7.230;2023-08-06T08:26:17;22.80;99.90
11497;DHT22;5805;51.542;7.230;2023-08-06T08:28:44;22.60;99.90
11497;DHT22;5805;51.542;7.230;2023-08-06T08:31:10;22.40;99.90
11497;DHT22;5805;51.542;7.230;2023-08-06T08:33:36;22.20;99.90
11497;DHT22;5805;51.542;7.230;2023-08-06T08:36:02;22.10;99.90
11497;DHT22;5805;51.542;7.230;2023-08-06T08:38:27;21.90;99.90
11497;DHT22;5805;51.542;7.230;2023-08-06T08:40:54;21.80;99.90
11497;DHT22;5805;51.542;7.230;2023-08-06T08:43:21;21.60;99.90
11497;DHT22;5805;51.542;7.230;2023-08-06T08:45:50;21.40;99.90
11497;DHT22;5805;51.542;7.230;2023-08-06T08:48:17;21.30;99.90
11497;DHT22;5805;51.542;7.230;2023-08-06T08:50:44;21.30;99.90
11497;DHT22;5805;51.542;7.230;2023-08-06T08:53:10;21.20;99.90
11497;DHT22;5805;51.542;7.230;2023-08-06T08:55:37;21.10;99.90
11497;DHT22;5805;51.542;7.230;2023-08-06T08:58:03;21.10;99.90
11497;DHT22;5805;51.542;7.230;2023-08-06T09:00:29;21.10;99.90
11497;DHT22;5805;51.542;7.230;2023-08-06T09:02:57;21.10;99.90
11497;DHT22;5805;51.542;7.230;2023-08-06T09:05:26;21.20;99.90
11497;DHT22;5805;51.542;7.230;2023-08-06T09:07:55;21.20;99.90
11497;DHT22;5805;51.542;7.230;2023-08-06T09:10:22;21.30;99.90
11497;DHT22;5805;51.542;7.230;2023-08-06T09:12:48;21.40;99.90
11497;DHT22;5805;51.542;7.230;2023-08-06T09:15:16;21.40;99.90
11497;DHT22;5805;51.542;7.230;2023-08-06T09:17:43;21.50;99.90
11497;DHT22;5805;51.542;7.230;2023-08-06T09:20:12;21.50;99.90
11497;DHT22;5805;51.542;7.230;2023-08-06T09:22:38;21.70;99.90
11497;DHT22;5805;51.542;7.230;2023-08-06T09:25:04;21.90;99.90
11497;DHT22;5805;51.542;7.230;2023-08-06T09:27:30;22.20;99.90
11497;DHT22;5805;51.542;7.230;2023-08-06T09:29:55;22.40;99.90
11497;DHT22;5805;51.542;7.230;2023-08-06T09:32:21;22.70;99.90
11497;DHT22;5805;51.542;7.230;2023-08-06T09:34:47;22.70;99.90
11497;DHT22;5805;51.542;7.230;2023-08-06T09:37:21;22.70;99.90
11497;DHT22;5805;51.542;7.230;2023-08-06T09:39:47;22.70;99.90
11497;DHT22;5805;51.542;7.230;2023-08-06T09:42:15;22.70;99.90
11497;DHT22;5805;51.542;7.230;2023-08-06T09:44:40;22.60;99.90
11497;DHT22;5805;51.542;7.230;2023-08-06T09:47:06;22.50;99.90
11497;DHT22;5805;51.542;7.230;2023-08-06T09:49:42;22.50;99.90
11497;DHT22;5805;51.542;7.230;2023-08-06T09:52:11;22.40;99.90
11497;DHT22;5805;51.542;7.230;2023-08-06T09:54:38;22.40;99.90
11497;DHT22;5805;51.542;7.230;2023-08-06T09:57:05;22.40;99.90
11497;DHT22;5805;51.542;7.230;2023-08-06T09:59:31;22.50;99.90
11497;DHT22;5805;51.542;7.230;2023-08-06T10:01:58;22.60;99.90
11497;DHT22;5805;51.542;7.230;2023-08-06T10:04:23;22.70;99.90
11497;DHT22;5805;51.542;7.230;2023-08-06T10:06:50;22.80;99.90
11497;DHT22;5805;51.542;7.230;2023-08-06T10:09:15;22.90;99.90
11497;DHT22;5805;51.542;7.230;2023-08-06T10:11:43;23.10;99.90
11497;DHT22;5805;51.542;7.230;2023-08-06T10:14:12;23.20;99.90
11497;DHT22;5805;51.542;7.230;2023-08-06T10:16:39;23.40;99.90
11497;DHT22;5805;51.542;7.230;2023-08-06T10:19:07;23.50;99.90
11497;DHT22;5805;51.542;7.230;2023-08-06T10:21:34;23.80;99.90
11497;DHT22;5805;51.542;7.230;2023-08-06T10:24:00;24.00;99.90
11497;DHT22;5805;51.542;7.230;2023-08-06T10:26:25;24.20;99.90
11497;DHT22;5805;51.542;7.230;2023-08-06T10:28:54;24.50;99.90
11497;DHT22;5805;51.542;7.230;2023-08-06T10:31:19;24.60;99.80
11497;DHT22;5805;51.542;7.230;2023-08-06T10:33:46;24.80;99.90
11497;DHT22;5805;51.542;7.230;2023-08-06T10:36:12;25.10;99.80
11497;DHT22;5805;51.542;7.230;2023-08-06T10:38:47;25.20;97.90
11497;DHT22;5805;51.542;7.230;2023-08-06T10:41:22;25.40;94.80
11497;DHT22;5805;51.542;7.230;2023-08-06T10:43:48;25.60;94.50
11497;DHT22;5805;51.542;7.230;2023-08-06T10:46:23;25.60;93.30
11497;DHT22;5805;51.542;7.230;2023-08-06T10:48:49;25.60;92.90
11497;DHT22;5805;51.542;7.230;2023-08-06T10:51:15;25.70;94.90
11497;DHT22;5805;51.542;7.230;2023-08-06T10:53:43;25.80;95.20
11497;DHT22;5805;51.542;7.230;2023-08-06T10:56:12;26.00;94.50
11497;DHT22;5805;51.542;7.230;2023-08-06T10:58:38;26.10;93.30
11497;DHT22;5805;51.542;7.230;2023-08-06T11:01:04;26.10;92.40
11497;DHT22;5805;51.542;7.230;2023-08-06T11:03:33;26.00;93.40
11497;DHT22;5805;51.542;7.230;2023-08-06T11:05:58;26.20;93.80
11497;DHT22;5805;51.542;7.230;2023-08-06T11:08:25;26.30;93.00
11497;DHT22;5805;51.542;7.230;2023-08-06T11:10:51;26.50;91.70
11497;DHT22;5805;51.542;7.230;2023-08-06T11:13:17;26.60;90.80
11497;DHT22;5805;51.542;7.230;2023-08-06T11:15:42;26.60;90.80
11497;DHT22;5805;51.542;7.230;2023-08-06T11:18:09;26.60;87.40
11497;DHT22;5805;51.542;7.230;2023-08-06T11:20:36;26.60;87.10
11497;DHT22;5805;51.542;7.230;2023-08-06T11:23:02;26.60;90.00
11497;DHT22;5805;51.542;7.230;2023-08-06T11:25:28;26.60;85.10
11497;DHT22;5805;51.542;7.230;2023-08-06T11:27:54;26.50;89.20
11497;DHT22;5805;51.542;7.230;2023-08-06T11:30:19;26.50;90.30
11497;DHT22;5805;51.542;7.230;2023-08-06T11:32:45;26.50;89.90
11497;DHT22;5805;51.542;7.230;2023-08-06T11:35:12;26.50;90.60
11497;DHT22;5805;51.542;7.230;2023-08-06T11:37:43;26.30;92.90
11497;DHT22;5805;51.542;7.230;2023-08-06T11:40:10;25.70;96.00
11497;DHT22;5805;51.542;7.230;2023-08-06T11:42:36;25.30;97.90
11497;DHT22;5805;51.542;7.230;2023-08-06T11:45:02;25.00;99.80
11497;DHT22;5805;51.542;7.230;2023-08-06T11:47:28;24.70;99.90
11497;DHT22;5805;51.542;7.230;2023-08-06T11:49:54;24.50;99.90
11497;DHT22;5805;51.542;7.230;2023-08-06T11:52:20;24.20;99.90
11497;DHT22;5805;51.542;7.230;2023-08-06T11:55:00;23.80;99.90
11497;DHT22;5805;51.542;7.230;2023-08-06T11:57:25;23.40;99.90
11497;DHT22;5805;51.542;7.230;2023-08-06T11:59:51;23.10;99.90
11497;DHT22;5805;51.542;7.230;2023-08-06T12:02:17;22.90;99.90
11497;DHT22;5805;51.542;7.230;2023-08-06T12:05:03;22.70;99.90
11497;DHT22;5805;51.542;7.230;2023-08-06T12:07:30;22.60;99.90
11497;DHT22;5805;51.542;7.230;2023-08-06T12:09:58;22.60;99.90
11497;DHT22;5805;51.542;7.230;2023-08-06T12:12:24;22.60;99.90
11497;DHT22;5805;51.542;7.230;2023-08-06T12:14:50;22.50;99.90
11497;DHT22;5805;51.542;7.230;2023-08-06T12:17:16;22.50;99.90
11497;DHT22;5805;51.542;7.230;2023-08-06T12:19:41;22.40;99.90
11497;DHT22;5805;51.542;7.230;2023-08-06T12:22:07;22.30;99.90
11497;DHT22;5805;51.542;7.230;2023-08-06T12:24:33;22.00;99.90
11497;DHT22;5805;51.542;7.230;2023-08-06T12:27:00;21.70;99.90
11497;DHT22;5805;51.542;7.230;2023-08-06T12:29:26;21.40;99.90
11497;DHT22;5805;51.542;7.230;2023-08-06T12:31:51;21.20;99.90
11497;DHT22;5805;51.542;7.230;2023-08-06T12:34:17;21.10;99.90
11497;DHT22;5805;51.542;7.230;2023-08-06T12:36:43;20.90;99.90
11497;DHT22;5805;51.542;7.230;2023-08-06T12:39:09;20.80;99.90
11497;DHT22;5805;51.542;7.230;2023-08-06T12:41:34;20.60;99.90
11497;DHT22;5805;51.542;7.230;2023-08-06T12:44:02;20.50;99.90
11497;DHT22;5805;51.542;7.230;2023-08-06T12:46:27;20.50;99.90
11497;DHT22;5805;51.542;7.230;2023-08-06T12:48:53;20.50;99.90
11497;DHT22;5805;51.542;7.230;2023-08-06T12:51:19;20.40;99.90
11497;DHT22;5805;51.542;7.230;2023-08-06T12:53:44;20.40;99.90
11497;DHT22;5805;51.542;7.230;2023-08-06T12:56:10;20.40;99.90
11497;DHT22;5805;51.542;7.230;2023-08-06T12:58:36;20.30;99.90
11497;DHT22;5805;51.542;7.230;2023-08-06T13:01:03;19.90;99.90
11497;DHT22;5805;51.542;7.230;2023-08-06T13:03:28;19.70;99.90
11497;DHT22;5805;51.542;7.230;2023-08-06T13:05:54;19.50;99.90
11497;DHT22;5805;51.542;7.230;2023-08-06T13:08:20;19.30;99.90
11497;DHT22;5805;51.542;7.230;2023-08-06T13:10:45;19.10;99.90
11497;DHT22;5805;51.542;7.230;2023-08-06T13:13:11;19.00;99.90
11497;DHT22;5805;51.542;7.230;2023-08-06T13:15:37;18.90;99.90
11497;DHT22;5805;51.542;7.230;2023-08-06T13:18:04;18.70;99.90
11497;DHT22;5805;51.542;7.230;2023-08-06T13:20:30;18.50;99.90
11497;DHT22;5805;51.542;7.230;2023-08-06T13:22:57;18.40;99.90
11497;DHT22;5805;51.542;7.230;2023-08-06T13:25:23;18.40;99.90
11497;DHT22;5805;51.542;7.230;2023-08-06T13:27:49;18.40;99.90
11497;DHT22;5805;51.542;7.230;2023-08-06T13:30:15;18.30;99.90
11497;DHT22;5805;51.542;7.230;2023-08-06T13:32:41;18.30;99.90
11497;DHT22;5805;51.542;7.230;2023-08-06T13:35:08;18.20;99.90
11497;DHT22;5805;51.542;7.230;2023-08-06T13:37:34;18.20;99.90
11497;DHT22;5805;51.542;7.230;2023-08-06T13:39:59;18.20;99.90
11497;DHT22;5805;51.542;7.230;2023-08-06T13:42:25;18.20;99.90
11497;DHT22;5805;51.542;7.230;2023-08-06T13:44:51;18.20;99.90
11497;DHT22;5805;51.542;7.230;2023-08-06T13:47:16;18.20;99.90
11497;DHT22;5805;51.542;7.230;2023-08-06T13:49:42;18.30;99.90
11497;DHT22;5805;51.542;7.230;2023-08-06T13:52:09;18.30;99.90
11497;DHT22;5805;51.542;7.230;2023-08-06T13:54:35;18.20;99.90
11497;DHT22;5805;51.542;7.230;2023-08-06T13:57:00;18.20;99.90
11497;DHT22;5805;51.542;7.230;2023-08-06T13:59:26;18.20;99.90
11497;DHT22;5805;51.542;7.230;2023-08-06T14:01:52;18.20;99.90
11497;DHT22;5805;51.542;7.230;2023-08-06T14:04:17;18.10;99.90
11497;DHT22;5805;51.542;7.230;2023-08-06T14:06:43;18.10;99.90
11497;DHT22;5805;51.542;7.230;2023-08-06T14:09:10;18.20;99.90
11497;DHT22;5805;51.542;7.230;2023-08-06T14:11:36;18.20;99.90
11497;DHT22;5805;51.542;7.230;2023-08-06T14:14:02;18.20;99.90
11497;DHT22;5805;51.542;7.230;2023-08-06T14:16:27;18.30;99.90
11497;DHT22;5805;51.542;7.230;2023-08-06T14:18:53;18.30;99.90
11497;DHT22;5805;51.542;7.230;2023-08-06T14:21:19;18.40;99.90
11497;DHT22;5805;51.542;7.230;2023-08-06T14:23:44;18.30;99.90
11497;DHT22;5805;51.542;7.230;2023-08-06T14:26:12;18.30;99.90
11497;DHT22;5805;51.542;7.230;2023-08-06T14:28:37;18.40;99.90
11497;DHT22;5805;51.542;7.230;2023-08-06T14:31:03;18.50;99.90
11497;DHT22;5805;51.542;7.230;2023-08-06T14:33:28;18.50;99.90
11497;DHT22;5805;51.542;7.230;2023-08-06T14:35:54;18.60;99.90
11497;DHT22;5805;51.542;7.230;2023-08-06T14:38:20;18.60;99.90
11497;DHT22;5805;51.542;7.230;2023-08-06T14:40:46;18.70;99.90
11497;DHT22;5805;51.542;7.230;2023-08-06T14:43:13;18.70;99.90
11497;DHT22;5805;51.542;7.230;2023-08-06T14:45:38;18.80;99.90
11497;DHT22;5805;51.542;7.230;2023-08-06T14:48:04;18.80;99.90
11497;DHT22;5805;51.542;7.230;2023-08-06T14:50:30;18.90;99.90
11497;DHT22;5805;51.542;7.230;2023-08-06T14:52:56;19.00;99.90
11497;DHT22;5805;51.542;7.230;2023-08-06T14:55:24;19.10;99.90
11497;DHT22;5805;51.542;7.230;2023-08-06T14:57:50;19.10;99.90
11497;DHT22;5805;51.542;7.230;2023-08-06T15:00:18;19.20;99.90
11497;DHT22;5805;51.542;7.230;2023-08-06T15:02:44;19.20;99.90
11497;DHT22;5805;51.542;7.230;2023-08-06T15:05:09;19.20;99.90
11497;DHT22;5805;51.542;7.230;2023-08-06T15:07:35;19.30;99.90
11497;DHT22;5805;51.542;7.230;2023-08-06T15:10:01;19.30;99.90
11497;DHT22;5805;51.542;7.230;2023-08-06T15:12:27;19.30;99.90
11497;DHT22;5805;51.542;7.230;2023-08-06T15:14:52;19.40;99.90
11497;DHT22;5805;51.542;7.230;2023-08-06T15:17:20;19.40;99.90
11497;DHT22;5805;51.542;7.230;2023-08-06T15:19:45;19.40;99.90
11497;DHT22;5805;51.542;7.230;2023-08-06T15:22:11;19.40;99.90
11497;DHT22;5805;51.542;7.230;2023-08-06T15:24:37;19.40;99.90
11497;DHT22;5805;51.542;7.230;2023-08-06T15:27:03;19.60;99.90
11497;DHT22;5805;51.542;7.230;2023-08-06T15:29:28;19.70;99.90
11497;DHT22;5805;51.542;7.230;2023-08-06T15:31:54;19.70;99.90
11497;DHT22;5805;51.542;7.230;2023-08-06T15:34:21;19.70;99.90
11497;DHT22;5805;51.542;7.230;2023-08-06T15:36:47;19.70;99.90
11497;DHT22;5805;51.542;7.230;2023-08-06T15:39:12;19.80;99.90